sensor_id;sensor_type;location;lat;lon;timestamp;P1;durP1;ratioP1;P2;durP2;ratioP2
19842;SDS011;10082;51.038;6.992;2022-11-15T00:01:43;8.68;;;7.70;;
19842;SDS011;10082;51.038;6.992;2022-11-15T00:04:28;8.20;;;6.88;;
19842;SDS011;10082;51.038;6.992;2022-11-15T00:07:14;7.55;;;6.65;;
19842;SDS011;10082;51.038;6.992;2022-11-15T00:10:01;7.88;;;7.07;;
19842;SDS011;10082;51.038;6.992;2022-11-15T00:12:48;7.78;;;7.07;;
19842;SDS011;10082;51.038;6.992;2022-11-15T00:15:34;9.18;;;6.80;;
19842;SDS011;10082;51.038;6.992;2022-11-15T00:18:20;7.22;;;6.63;;
19842;SDS011;10082;51.038;6.992;2022-11-15T00:21:07;7.40;;;6.63;;
19842;SDS011;10082;51.038;6.992;2022-11-15T00:23:55;8.05;;;7.07;;
19842;SDS011;10082;51.038;6.992;2022-11-15T00:26:42;7.15;;;6.50;;
19842;SDS011;10082;51.038;6.992;2022-11-15T00:29:28;7.18;;;6.57;;
19842;SDS011;10082;51.038;6.992;2022-11-15T00:32:13;7.95;;;7.15;;
19842;SDS011;10082;51.038;6.992;2022-11-15T00:34:59;7.45;;;6.75;;
19842;SDS011;10082;51.038;6.992;2022-11-15T00:37:45;7.78;;;7.05;;
19842;SDS011;10082;51.038;6.992;2022-11-15T00:40:31;8.15;;;7.35;;
19842;SDS011;10082;51.038;6.992;2022-11-15T00:43:18;7.65;;;6.85;;
19842;SDS011;10082;51.038;6.992;2022-11-15T00:46:04;7.28;;;6.65;;
19842;SDS011;10082;51.038;6.992;2022-11-15T00:48:51;7.78;;;6.97;;
19842;SDS011;10082;51.038;6.992;2022-11-15T00:51:37;7.60;;;6.80;;
19842;SDS011;10082;51.038;6.992;2022-11-15T00:54:22;7.43;;;6.55;;
19842;SDS011;10082;51.038;6.992;2022-11-15T00:57:08;7.60;;;6.90;;
19842;SDS011;10082;51.038;6.992;2022-11-15T00:59:55;7.55;;;6.40;;
19842;SDS011;10082;51.038;6.992;2022-11-15T01:02:41;7.72;;;7.03;;
19842;SDS011;10082;51.038;6.992;2022-11-15T01:05:26;7.22;;;6.53;;
19842;SDS011;10082;51.038;6.992;2022-11-15T01:08:12;7.85;;;6.93;;
19842;SDS011;10082;51.038;6.992;2022-11-15T01:11:00;8.02;;;7.00;;
19842;SDS011;10082;51.038;6.992;2022-11-15T01:13:46;7.82;;;7.13;;
19842;SDS011;10082;51.038;6.992;2022-11-15T01:16:33;7.18;;;6.57;;
19842;SDS011;10082;51.038;6.992;2022-11-15T01:19:19;7.65;;;6.72;;
19842;SDS011;10082;51.038;6.992;2022-11-15T01:22:05;7.32;;;6.63;;
19842;SDS011;10082;51.038;6.992;2022-11-15T01:24:50;7.60;;;6.47;;
19842;SDS011;10082;51.038;6.992;2022-11-15T01:27:36;7.22;;;6.63;;
19842;SDS011;10082;51.038;6.992;2022-11-15T01:30:22;7.38;;;6.75;;
19842;SDS011;10082;51.038;6.992;2022-11-15T01:33:09;7.63;;;6.75;;
19842;SDS011;10082;51.038;6.992;2022-11-15T01:35:55;8.88;;;6.97;;
19842;SDS011;10082;51.038;6.992;2022-11-15T01:38:40;7.45;;;6.85;;
19842;SDS011;10082;51.038;6.992;2022-11-15T01:41:28;8.18;;;7.30;;
19842;SDS011;10082;51.038;6.992;2022-11-15T01:47:38;8.15;;;6.90;;
19842;SDS011;10082;51.038;6.992;2022-11-15T01:50:29;8.05;;;7.28;;
19842;SDS011;10082;51.038;6.992;2022-11-15T01:53:18;8.70;;;7.38;;
19842;SDS011;10082;51.038;6.992;2022-11-15T01:56:07;8.10;;;6.60;;
19842;SDS011;10082;51.038;6.992;2022-11-15T01:58:57;7.53;;;6.70;;
19842;SDS011;10082;51.038;6.992;2022-11-15T02:01:47;7.43;;;6.70;;
19842;SDS011;10082;51.038;6.992;2022-11-15T02:04:32;7.53;;;6.65;;
19842;SDS011;10082;51.038;6.992;2022-11-15T02:07:22;7.85;;;7.05;;
19842;SDS011;10082;51.038;6.992;2022-11-15T02:10:09;7.65;;;6.95;;
19842;SDS011;10082;51.038;6.992;2022-11-15T02:12:57;8.85;;;7.43;;
19842;SDS011;10082;51.038;6.992;2022-11-15T02:15:48;7.57;;;6.93;;
19842;SDS011;10082;51.038;6.992;2022-11-15T02:18:45;7.65;;;6.85;;
19842;SDS011;10082;51.038;6.992;2022-11-15T02:21:36;9.50;;;7.20;;
19842;SDS011;10082;51.038;6.992;2022-11-15T02:27:51;7.47;;;6.72;;
19842;SDS011;10082;51.038;6.992;2022-11-15T02:30:52;7.90;;;6.88;;
19842;SDS011;10082;51.038;6.992;2022-11-15T02:33:42;7.55;;;6.85;;
19842;SDS011;10082;51.038;6.992;2022-11-15T02:36:40;7.45;;;6.75;;
19842;SDS011;10082;51.038;6.992;2022-11-15T02:39:34;7.75;;;7.05;;
19842;SDS011;10082;51.038;6.992;2022-11-15T02:42:27;7.25;;;6.57;;
19842;SDS011;10082;51.038;6.992;2022-11-15T02:45:44;7.13;;;6.45;;
19842;SDS011;10082;51.038;6.992;2022-11-15T02:48:34;7.25;;;6.55;;
19842;SDS011;10082;51.038;6.992;2022-11-15T02:51:20;7.45;;;6.65;;
19842;SDS011;10082;51.038;6.992;2022-11-15T02:54:07;7.03;;;6.32;;
19842;SDS011;10082;51.038;6.992;2022-11-15T02:56:56;7.03;;;6.50;;
19842;SDS011;10082;51.038;6.992;2022-11-15T02:59:53;7.95;;;6.38;;
19842;SDS011;10082;51.038;6.992;2022-11-15T03:03:00;7.40;;;6.72;;
19842;SDS011;10082;51.038;6.992;2022-11-15T03:06:05;7.20;;;6.50;;
19842;SDS011;10082;51.038;6.992;2022-11-15T03:09:02;7.68;;;6.88;;
19842;SDS011;10082;51.038;6.992;2022-11-15T03:11:52;7.35;;;6.75;;
19842;SDS011;10082;51.038;6.992;2022-11-15T03:14:43;7.90;;;6.32;;
19842;SDS011;10082;51.038;6.992;2022-11-15T03:17:38;7.35;;;6.15;;
19842;SDS011;10082;51.038;6.992;2022-11-15T03:20:28;7.00;;;6.35;;
19842;SDS011;10082;51.038;6.992;2022-11-15T03:23:18;6.90;;;6.28;;
19842;SDS011;10082;51.038;6.992;2022-11-15T03:26:04;6.72;;;6.07;;
19842;SDS011;10082;51.038;6.992;2022-11-15T03:28:52;6.72;;;6.10;;
19842;SDS011;10082;51.038;6.992;2022-11-15T03:31:42;6.65;;;6.05;;
19842;SDS011;10082;51.038;6.992;2022-11-15T03:34:32;6.45;;;5.85;;
19842;SDS011;10082;51.038;6.992;2022-11-15T03:37:22;6.60;;;5.90;;
19842;SDS011;10082;51.038;6.992;2022-11-15T03:40:16;7.68;;;6.35;;
19842;SDS011;10082;51.038;6.992;2022-11-15T03:43:04;6.50;;;5.90;;
19842;SDS011;10082;51.038;6.992;2022-11-15T03:45:54;6.07;;;5.57;;
19842;SDS011;10082;51.038;6.992;2022-11-15T03:51:50;6.32;;;5.72;;
19842;SDS011;10082;51.038;6.992;2022-11-15T03:54:36;6.07;;;5.47;;
19842;SDS011;10082;51.038;6.992;2022-11-15T03:57:23;6.60;;;5.90;;
19842;SDS011;10082;51.038;6.992;2022-11-15T04:00:09;6.00;;;5.50;;
19842;SDS011;10082;51.038;6.992;2022-11-15T04:02:55;6.38;;;5.78;;
19842;SDS011;10082;51.038;6.992;2022-11-15T04:05:41;6.78;;;5.53;;
19842;SDS011;10082;51.038;6.992;2022-11-15T04:08:27;5.97;;;5.47;;
19842;SDS011;10082;51.038;6.992;2022-11-15T04:11:12;5.90;;;5.40;;
19842;SDS011;10082;51.038;6.992;2022-11-15T04:13:59;5.70;;;5.20;;
19842;SDS011;10082;51.038;6.992;2022-11-15T04:16:45;5.88;;;5.38;;
19842;SDS011;10082;51.038;6.992;2022-11-15T04:19:31;6.00;;;5.50;;
19842;SDS011;10082;51.038;6.992;2022-11-15T04:22:33;6.00;;;5.50;;
19842;SDS011;10082;51.038;6.992;2022-11-15T04:25:36;6.00;;;5.50;;
19842;SDS011;10082;51.038;6.992;2022-11-15T04:28:22;6.40;;;5.70;;
19842;SDS011;10082;51.038;6.992;2022-11-15T04:31:09;6.50;;;5.90;;
19842;SDS011;10082;51.038;6.992;2022-11-15T04:33:55;6.70;;;5.93;;
19842;SDS011;10082;51.038;6.992;2022-11-15T04:36:41;6.45;;;5.72;;
19842;SDS011;10082;51.038;6.992;2022-11-15T04:39:44;6.05;;;5.55;;
19842;SDS011;10082;51.038;6.992;2022-11-15T04:42:29;6.45;;;5.85;;
19842;SDS011;10082;51.038;6.992;2022-11-15T04:45:15;7.05;;;6.45;;
19842;SDS011;10082;51.038;6.992;2022-11-15T04:48:03;7.10;;;6.50;;
19842;SDS011;10082;51.038;6.992;2022-11-15T04:50:50;7.00;;;6.40;;
19842;SDS011;10082;51.038;6.992;2022-11-15T04:53:36;6.90;;;6.30;;
19842;SDS011;10082;51.038;6.992;2022-11-15T04:56:21;6.53;;;5.93;;
19842;SDS011;10082;51.038;6.992;2022-11-15T04:59:07;6.68;;;6.13;;
19842;SDS011;10082;51.038;6.992;2022-11-15T05:01:53;6.88;;;6.18;;
19842;SDS011;10082;51.038;6.992;2022-11-15T05:04:40;6.20;;;5.70;;
19842;SDS011;10082;51.038;6.992;2022-11-15T05:07:24;6.18;;;5.68;;
19842;SDS011;10082;51.038;6.992;2022-11-15T05:10:10;6.50;;;6.00;;
19842;SDS011;10082;51.038;6.992;2022-11-15T05:12:57;6.80;;;6.20;;
19842;SDS011;10082;51.038;6.992;2022-11-15T05:15:42;6.20;;;5.70;;
19842;SDS011;10082;51.038;6.992;2022-11-15T05:18:29;6.70;;;6.20;;
19842;SDS011;10082;51.038;6.992;2022-11-15T05:21:15;6.30;;;5.80;;
19842;SDS011;10082;51.038;6.992;2022-11-15T05:24:01;5.88;;;5.38;;
19842;SDS011;10082;51.038;6.992;2022-11-15T05:26:47;6.28;;;5.80;;
19842;SDS011;10082;51.038;6.992;2022-11-15T05:29:34;6.22;;;5.72;;
19842;SDS011;10082;51.038;6.992;2022-11-15T05:32:20;6.18;;;5.68;;
19842;SDS011;10082;51.038;6.992;2022-11-15T05:35:06;5.57;;;5.10;;
19842;SDS011;10082;51.038;6.992;2022-11-15T05:37:59;5.80;;;5.30;;
19842;SDS011;10082;51.038;6.992;2022-11-15T05:40:44;5.53;;;5.13;;
19842;SDS011;10082;51.038;6.992;2022-11-15T05:43:30;5.93;;;5.43;;
19842;SDS011;10082;51.038;6.992;2022-11-15T05:46:20;5.70;;;5.30;;
19842;SDS011;10082;51.038;6.992;2022-11-15T05:49:07;5.40;;;5.00;;
19842;SDS011;10082;51.038;6.992;2022-11-15T05:51:58;4.80;;;4.50;;
19842;SDS011;10082;51.038;6.992;2022-11-15T05:54:45;5.40;;;4.90;;
19842;SDS011;10082;51.038;6.992;2022-11-15T05:57:32;5.55;;;5.10;;
19842;SDS011;10082;51.038;6.992;2022-11-15T06:00:18;5.20;;;4.80;;
19842;SDS011;10082;51.038;6.992;2022-11-15T06:03:04;5.20;;;4.78;;
19842;SDS011;10082;51.038;6.992;2022-11-15T06:05:49;5.28;;;4.85;;
19842;SDS011;10082;51.038;6.992;2022-11-15T06:08:35;5.50;;;5.10;;
19842;SDS011;10082;51.038;6.992;2022-11-15T06:11:22;5.30;;;4.90;;
19842;SDS011;10082;51.038;6.992;2022-11-15T06:14:08;6.32;;;5.40;;
19842;SDS011;10082;51.038;6.992;2022-11-15T06:16:53;5.68;;;5.18;;
19842;SDS011;10082;51.038;6.992;2022-11-15T06:19:39;4.93;;;4.53;;
19842;SDS011;10082;51.038;6.992;2022-11-15T06:22:25;5.28;;;4.88;;
19842;SDS011;10082;51.038;6.992;2022-11-15T06:25:10;5.05;;;4.65;;
19842;SDS011;10082;51.038;6.992;2022-11-15T06:27:58;5.72;;;4.78;;
19842;SDS011;10082;51.038;6.992;2022-11-15T06:30:44;5.15;;;4.75;;
19842;SDS011;10082;51.038;6.992;2022-11-15T06:33:30;5.07;;;4.68;;
19842;SDS011;10082;51.038;6.992;2022-11-15T06:36:15;5.07;;;4.68;;
19842;SDS011;10082;51.038;6.992;2022-11-15T06:39:01;4.80;;;4.32;;
19842;SDS011;10082;51.038;6.992;2022-11-15T06:41:47;4.93;;;4.53;;
19842;SDS011;10082;51.038;6.992;2022-11-15T06:44:34;5.18;;;4.78;;
19842;SDS011;10082;51.038;6.992;2022-11-15T06:47:20;5.00;;;4.60;;
19842;SDS011;10082;51.038;6.992;2022-11-15T06:50:06;4.88;;;4.47;;
19842;SDS011;10082;51.038;6.992;2022-11-15T06:52:52;4.78;;;4.38;;
19842;SDS011;10082;51.038;6.992;2022-11-15T06:55:38;4.57;;;4.28;;
19842;SDS011;10082;51.038;6.992;2022-11-15T06:58:25;4.40;;;4.03;;
19842;SDS011;10082;51.038;6.992;2022-11-15T07:01:12;4.18;;;3.78;;
19842;SDS011;10082;51.038;6.992;2022-11-15T07:03:58;4.28;;;3.90;;
19842;SDS011;10082;51.038;6.992;2022-11-15T07:06:45;4.47;;;4.18;;
19842;SDS011;10082;51.038;6.992;2022-11-15T07:09:31;4.40;;;3.90;;
19842;SDS011;10082;51.038;6.992;2022-11-15T07:12:17;4.57;;;4.15;;
19842;SDS011;10082;51.038;6.992;2022-11-15T07:15:02;3.95;;;3.65;;
19842;SDS011;10082;51.038;6.992;2022-11-15T07:17:50;4.80;;;4.40;;
19842;SDS011;10082;51.038;6.992;2022-11-15T07:20:37;4.68;;;4.28;;
19842;SDS011;10082;51.038;6.992;2022-11-15T07:23:23;4.38;;;4.05;;
19842;SDS011;10082;51.038;6.992;2022-11-15T07:26:09;3.90;;;3.60;;
19842;SDS011;10082;51.038;6.992;2022-11-15T07:28:55;4.63;;;4.22;;
19842;SDS011;10082;51.038;6.992;2022-11-15T07:31:40;3.85;;;3.53;;
19842;SDS011;10082;51.038;6.992;2022-11-15T07:34:27;4.35;;;3.97;;
19842;SDS011;10082;51.038;6.992;2022-11-15T07:37:13;4.30;;;3.90;;
19842;SDS011;10082;51.038;6.992;2022-11-15T07:39:58;5.03;;;4.30;;
19842;SDS011;10082;51.038;6.992;2022-11-15T07:42:44;4.28;;;3.90;;
19842;SDS011;10082;51.038;6.992;2022-11-15T07:45:40;4.07;;;3.78;;
19842;SDS011;10082;51.038;6.992;2022-11-15T07:48:27;5.55;;;3.83;;
19842;SDS011;10082;51.038;6.992;2022-11-15T07:51:15;4.10;;;3.72;;
19842;SDS011;10082;51.038;6.992;2022-11-15T07:54:01;4.30;;;3.90;;
19842;SDS011;10082;51.038;6.992;2022-11-15T07:56:47;4.20;;;3.83;;
19842;SDS011;10082;51.038;6.992;2022-11-15T07:59:33;3.92;;;3.40;;
19842;SDS011;10082;51.038;6.992;2022-11-15T08:02:19;3.85;;;3.45;;
19842;SDS011;10082;51.038;6.992;2022-11-15T08:05:05;4.25;;;3.95;;
19842;SDS011;10082;51.038;6.992;2022-11-15T08:07:52;4.03;;;3.38;;
19842;SDS011;10082;51.038;6.992;2022-11-15T08:10:40;4.07;;;3.28;;
19842;SDS011;10082;51.038;6.992;2022-11-15T08:13:25;3.72;;;3.30;;
19842;SDS011;10082;51.038;6.992;2022-11-15T08:16:11;3.33;;;2.92;;
19842;SDS011;10082;51.038;6.992;2022-11-15T08:18:56;3.60;;;3.30;;
19842;SDS011;10082;51.038;6.992;2022-11-15T08:21:42;3.30;;;3.00;;
19842;SDS011;10082;51.038;6.992;2022-11-15T08:24:29;3.47;;;3.17;;
19842;SDS011;10082;51.038;6.992;2022-11-15T08:27:15;3.63;;;3.03;;
19842;SDS011;10082;51.038;6.992;2022-11-15T08:30:01;3.58;;;3.28;;
19842;SDS011;10082;51.038;6.992;2022-11-15T08:32:47;3.15;;;2.63;;
19842;SDS011;10082;51.038;6.992;2022-11-15T08:35:32;4.32;;;3.00;;
19842;SDS011;10082;51.038;6.992;2022-11-15T08:38:18;3.17;;;2.95;;
19842;SDS011;10082;51.038;6.992;2022-11-15T08:41:06;3.53;;;3.03;;
19842;SDS011;10082;51.038;6.992;2022-11-15T08:43:51;2.97;;;2.70;;
19842;SDS011;10082;51.038;6.992;2022-11-15T08:46:37;2.70;;;2.50;;
19842;SDS011;10082;51.038;6.992;2022-11-15T08:49:22;3.22;;;2.72;;
19842;SDS011;10082;51.038;6.992;2022-11-15T08:52:08;2.53;;;2.33;;
19842;SDS011;10082;51.038;6.992;2022-11-15T08:54:54;2.88;;;2.20;;
19842;SDS011;10082;51.038;6.992;2022-11-15T08:57:40;2.22;;;2.03;;
19842;SDS011;10082;51.038;6.992;2022-11-15T09:00:26;3.65;;;2.55;;
19842;SDS011;10082;51.038;6.992;2022-11-15T09:03:12;2.50;;;2.17;;
19842;SDS011;10082;51.038;6.992;2022-11-15T09:05:59;2.60;;;2.40;;
19842;SDS011;10082;51.038;6.992;2022-11-15T09:08:45;2.55;;;2.10;;
19842;SDS011;10082;51.038;6.992;2022-11-15T09:11:32;3.10;;;2.00;;
19842;SDS011;10082;51.038;6.992;2022-11-15T09:14:19;2.30;;;2.10;;
19842;SDS011;10082;51.038;6.992;2022-11-15T09:17:07;2.53;;;2.13;;
19842;SDS011;10082;51.038;6.992;2022-11-15T09:19:53;2.38;;;2.17;;
19842;SDS011;10082;51.038;6.992;2022-11-15T09:22:39;10.60;;;9.48;;
19842;SDS011;10082;51.038;6.992;2022-11-15T09:25:25;2.20;;;1.80;;
19842;SDS011;10082;51.038;6.992;2022-11-15T09:28:11;2.97;;;1.95;;
19842;SDS011;10082;51.038;6.992;2022-11-15T09:30:58;4.50;;;1.60;;
19842;SDS011;10082;51.038;6.992;2022-11-15T09:33:45;2.63;;;1.40;;
19842;SDS011;10082;51.038;6.992;2022-11-15T09:36:31;1.60;;;1.48;;
19842;SDS011;10082;51.038;6.992;2022-11-15T09:39:16;1.42;;;1.33;;
19842;SDS011;10082;51.038;6.992;2022-11-15T09:42:06;2.92;;;1.40;;
19842;SDS011;10082;51.038;6.992;2022-11-15T09:45:10;1.60;;;1.33;;
19842;SDS011;10082;51.038;6.992;2022-11-15T09:48:08;1.65;;;1.55;;
19842;SDS011;10082;51.038;6.992;2022-11-15T09:51:19;2.03;;;1.30;;
19842;SDS011;10082;51.038;6.992;2022-11-15T09:53:55;1.60;;;1.50;;
19842;SDS011;10082;51.038;6.992;2022-11-15T09:56:28;2.63;;;1.25;;
19842;SDS011;10082;51.038;6.992;2022-11-15T09:59:00;1.50;;;1.20;;
19842;SDS011;10082;51.038;6.992;2022-11-15T10:01:37;1.48;;;1.25;;
19842;SDS011;10082;51.038;6.992;2022-11-15T10:04:12;2.30;;;1.30;;
19842;SDS011;10082;51.038;6.992;2022-11-15T10:06:40;1.10;;;1.00;;
19842;SDS011;10082;51.038;6.992;2022-11-15T10:09:13;3.67;;;1.38;;
19842;SDS011;10082;51.038;6.992;2022-11-15T10:11:46;2.72;;;1.20;;
19842;SDS011;10082;51.038;6.992;2022-11-15T10:14:14;1.70;;;1.10;;
19842;SDS011;10082;51.038;6.992;2022-11-15T10:16:52;2.08;;;1.15;;
19842;SDS011;10082;51.038;6.992;2022-11-15T10:19:32;2.45;;;1.17;;
19842;SDS011;10082;51.038;6.992;2022-11-15T10:22:08;1.92;;;1.20;;
19842;SDS011;10082;51.038;6.992;2022-11-15T10:24:45;1.65;;;1.15;;
19842;SDS011;10082;51.038;6.992;2022-11-15T10:27:13;2.05;;;0.90;;
19842;SDS011;10082;51.038;6.992;2022-11-15T10:29:44;1.80;;;0.93;;
19842;SDS011;10082;51.038;6.992;2022-11-15T10:32:12;1.50;;;1.13;;
19842;SDS011;10082;51.038;6.992;2022-11-15T10:34:44;1.65;;;1.00;;
19842;SDS011;10082;51.038;6.992;2022-11-15T10:37:12;2.13;;;1.00;;
19842;SDS011;10082;51.038;6.992;2022-11-15T10:39:42;1.15;;;1.05;;
19842;SDS011;10082;51.038;6.992;2022-11-15T10:42:15;1.02;;;0.90;;
19842;SDS011;10082;51.038;6.992;2022-11-15T10:44:44;1.30;;;0.80;;
19842;SDS011;10082;51.038;6.992;2022-11-15T10:47:22;1.42;;;0.88;;
19842;SDS011;10082;51.038;6.992;2022-11-15T10:49:57;1.23;;;1.08;;
19842;SDS011;10082;51.038;6.992;2022-11-15T10:52:25;1.63;;;0.77;;
19842;SDS011;10082;51.038;6.992;2022-11-15T10:54:54;0.98;;;0.88;;
19842;SDS011;10082;51.038;6.992;2022-11-15T10:57:24;1.77;;;0.75;;
19842;SDS011;10082;51.038;6.992;2022-11-15T10:59:54;1.98;;;0.88;;
19842;SDS011;10082;51.038;6.992;2022-11-15T11:02:34;1.55;;;0.85;;
19842;SDS011;10082;51.038;6.992;2022-11-15T11:05:04;1.55;;;0.70;;
19842;SDS011;10082;51.038;6.992;2022-11-15T11:07:34;1.10;;;0.70;;
19842;SDS011;10082;51.038;6.992;2022-11-15T11:10:03;1.80;;;0.80;;
19842;SDS011;10082;51.038;6.992;2022-11-15T11:12:33;1.75;;;0.80;;
19842;SDS011;10082;51.038;6.992;2022-11-15T11:15:02;1.92;;;0.80;;
19842;SDS011;10082;51.038;6.992;2022-11-15T11:17:42;1.83;;;0.60;;
19842;SDS011;10082;51.038;6.992;2022-11-15T11:20:20;0.90;;;0.70;;
19842;SDS011;10082;51.038;6.992;2022-11-15T11:23:00;1.92;;;0.93;;
19842;SDS011;10082;51.038;6.992;2022-11-15T11:25:32;2.97;;;0.63;;
19842;SDS011;10082;51.038;6.992;2022-11-15T11:28:14;0.93;;;0.60;;
19842;SDS011;10082;51.038;6.992;2022-11-15T11:30:55;3.17;;;0.80;;
19842;SDS011;10082;51.038;6.992;2022-11-15T11:33:34;1.02;;;0.68;;
19842;SDS011;10082;51.038;6.992;2022-11-15T11:36:16;2.55;;;0.82;;
19842;SDS011;10082;51.038;6.992;2022-11-15T11:38:56;1.63;;;0.82;;
19842;SDS011;10082;51.038;6.992;2022-11-15T11:41:32;2.08;;;0.80;;
19842;SDS011;10082;51.038;6.992;2022-11-15T11:44:14;2.88;;;0.70;;
19842;SDS011;10082;51.038;6.992;2022-11-15T11:46:53;0.90;;;0.60;;
19842;SDS011;10082;51.038;6.992;2022-11-15T11:49:25;2.15;;;0.80;;
19842;SDS011;10082;51.038;6.992;2022-11-15T11:51:59;2.58;;;0.63;;
19842;SDS011;10082;51.038;6.992;2022-11-15T11:54:31;1.65;;;0.77;;
19842;SDS011;10082;51.038;6.992;2022-11-15T11:57:04;2.13;;;0.80;;
19842;SDS011;10082;51.038;6.992;2022-11-15T11:59:39;1.13;;;0.70;;
19842;SDS011;10082;51.038;6.992;2022-11-15T12:02:12;2.95;;;0.90;;
19842;SDS011;10082;51.038;6.992;2022-11-15T12:04:44;1.48;;;0.93;;
19842;SDS011;10082;51.038;6.992;2022-11-15T12:07:17;1.00;;;0.70;;
19842;SDS011;10082;51.038;6.992;2022-11-15T12:09:51;1.38;;;0.80;;
19842;SDS011;10082;51.038;6.992;2022-11-15T12:12:27;2.08;;;0.98;;
19842;SDS011;10082;51.038;6.992;2022-11-15T12:15:02;1.90;;;0.82;;
19842;SDS011;10082;51.038;6.992;2022-11-15T12:17:31;0.98;;;0.73;;
19842;SDS011;10082;51.038;6.992;2022-11-15T12:19:59;2.03;;;0.93;;
19842;SDS011;10082;51.038;6.992;2022-11-15T12:22:35;3.58;;;1.00;;
19842;SDS011;10082;51.038;6.992;2022-11-15T12:25:07;1.65;;;0.73;;
19842;SDS011;10082;51.038;6.992;2022-11-15T12:27:44;1.17;;;0.65;;
19842;SDS011;10082;51.038;6.992;2022-11-15T12:30:17;1.92;;;0.70;;
19842;SDS011;10082;51.038;6.992;2022-11-15T12:32:50;2.05;;;1.15;;
19842;SDS011;10082;51.038;6.992;2022-11-15T12:35:24;1.92;;;0.70;;
19842;SDS011;10082;51.038;6.992;2022-11-15T12:37:56;1.35;;;0.93;;
19842;SDS011;10082;51.038;6.992;2022-11-15T12:40:27;2.40;;;0.70;;
19842;SDS011;10082;51.038;6.992;2022-11-15T12:46:10;3.15;;;0.95;;
19842;SDS011;10082;51.038;6.992;2022-11-15T12:48:49;2.58;;;1.05;;
19842;SDS011;10082;51.038;6.992;2022-11-15T12:51:22;0.60;;;0.60;;
19842;SDS011;10082;51.038;6.992;2022-11-15T12:57:56;2.75;;;0.90;;
19842;SDS011;10082;51.038;6.992;2022-11-15T13:00:53;1.23;;;0.70;;
19842;SDS011;10082;51.038;6.992;2022-11-15T13:03:27;2.00;;;0.82;;
19842;SDS011;10082;51.038;6.992;2022-11-15T13:08:58;2.53;;;0.80;;
19842;SDS011;10082;51.038;6.992;2022-11-15T13:11:42;2.70;;;0.90;;
19842;SDS011;10082;51.038;6.992;2022-11-15T13:20:00;1.05;;;0.80;;
19842;SDS011;10082;51.038;6.992;2022-11-15T13:22:40;2.53;;;1.10;;
19842;SDS011;10082;51.038;6.992;2022-11-15T13:25:17;1.50;;;1.35;;
19842;SDS011;10082;51.038;6.992;2022-11-15T13:27:48;2.15;;;1.00;;
19842;SDS011;10082;51.038;6.992;2022-11-15T13:30:21;2.30;;;1.20;;
19842;SDS011;10082;51.038;6.992;2022-11-15T13:32:50;1.30;;;1.15;;
19842;SDS011;10082;51.038;6.992;2022-11-15T13:35:20;2.10;;;1.10;;
19842;SDS011;10082;51.038;6.992;2022-11-15T13:37:48;1.60;;;0.95;;
19842;SDS011;10082;51.038;6.992;2022-11-15T13:40:20;1.20;;;1.10;;
19842;SDS011;10082;51.038;6.992;2022-11-15T13:42:52;1.77;;;1.08;;
19842;SDS011;10082;51.038;6.992;2022-11-15T13:45:21;2.40;;;1.30;;
19842;SDS011;10082;51.038;6.992;2022-11-15T13:47:51;1.48;;;1.20;;
19842;SDS011;10082;51.038;6.992;2022-11-15T13:50:20;2.30;;;1.30;;
19842;SDS011;10082;51.038;6.992;2022-11-15T13:52:51;1.83;;;1.25;;
19842;SDS011;10082;51.038;6.992;2022-11-15T13:55:20;1.50;;;1.40;;
19842;SDS011;10082;51.038;6.992;2022-11-15T13:57:49;2.28;;;1.70;;
19842;SDS011;10082;51.038;6.992;2022-11-15T14:00:26;1.95;;;1.60;;
19842;SDS011;10082;51.038;6.992;2022-11-15T14:03:04;2.05;;;1.75;;
19842;SDS011;10082;51.038;6.992;2022-11-15T14:05:33;1.88;;;1.58;;
19842;SDS011;10082;51.038;6.992;2022-11-15T14:08:01;2.55;;;1.63;;
19842;SDS011;10082;51.038;6.992;2022-11-15T14:10:30;3.28;;;2.00;;
19842;SDS011;10082;51.038;6.992;2022-11-15T14:13:00;2.10;;;1.90;;
19842;SDS011;10082;51.038;6.992;2022-11-15T14:15:30;2.92;;;1.77;;
19842;SDS011;10082;51.038;6.992;2022-11-15T14:17:59;3.40;;;1.85;;
19842;SDS011;10082;51.038;6.992;2022-11-15T14:20:30;4.40;;;1.85;;
19842;SDS011;10082;51.038;6.992;2022-11-15T14:23:05;1.60;;;1.50;;
19842;SDS011;10082;51.038;6.992;2022-11-15T14:25:51;2.30;;;2.05;;
19842;SDS011;10082;51.038;6.992;2022-11-15T14:28:30;3.50;;;1.83;;
19842;SDS011;10082;51.038;6.992;2022-11-15T14:31:04;2.28;;;1.98;;
19842;SDS011;10082;51.038;6.992;2022-11-15T14:33:38;3.45;;;1.70;;
19842;SDS011;10082;51.038;6.992;2022-11-15T14:36:10;2.65;;;1.92;;
19842;SDS011;10082;51.038;6.992;2022-11-15T14:38:39;2.00;;;1.80;;
19842;SDS011;10082;51.038;6.992;2022-11-15T14:41:10;2.97;;;2.05;;
19842;SDS011;10082;51.038;6.992;2022-11-15T14:43:44;3.28;;;2.10;;
19842;SDS011;10082;51.038;6.992;2022-11-15T14:46:13;2.25;;;2.05;;
19842;SDS011;10082;51.038;6.992;2022-11-15T14:48:40;2.25;;;1.95;;
19842;SDS011;10082;51.038;6.992;2022-11-15T14:51:09;2.80;;;1.80;;
19842;SDS011;10082;51.038;6.992;2022-11-15T14:53:40;2.72;;;1.80;;
19842;SDS011;10082;51.038;6.992;2022-11-15T14:56:07;2.53;;;1.73;;
19842;SDS011;10082;51.038;6.992;2022-11-15T14:58:34;2.30;;;1.80;;
19842;SDS011;10082;51.038;6.992;2022-11-15T15:01:02;2.45;;;1.80;;
19842;SDS011;10082;51.038;6.992;2022-11-15T15:03:31;3.13;;;1.88;;
19842;SDS011;10082;51.038;6.992;2022-11-15T15:05:58;1.75;;;1.60;;
19842;SDS011;10082;51.038;6.992;2022-11-15T15:08:25;1.98;;;1.60;;
19842;SDS011;10082;51.038;6.992;2022-11-15T15:10:52;3.70;;;1.77;;
19842;SDS011;10082;51.038;6.992;2022-11-15T15:13:20;2.08;;;1.80;;
19842;SDS011;10082;51.038;6.992;2022-11-15T15:15:49;6.07;;;1.63;;
19842;SDS011;10082;51.038;6.992;2022-11-15T15:18:17;1.98;;;1.70;;
19842;SDS011;10082;51.038;6.992;2022-11-15T15:20:49;5.57;;;2.72;;
19842;SDS011;10082;51.038;6.992;2022-11-15T15:23:22;5.32;;;4.32;;
19842;SDS011;10082;51.038;6.992;2022-11-15T15:25:51;6.50;;;5.22;;
19842;SDS011;10082;51.038;6.992;2022-11-15T15:28:18;6.82;;;5.90;;
19842;SDS011;10082;51.038;6.992;2022-11-15T15:30:45;5.65;;;5.15;;
19842;SDS011;10082;51.038;6.992;2022-11-15T15:33:14;4.38;;;3.85;;
19842;SDS011;10082;51.038;6.992;2022-11-15T15:35:42;2.35;;;2.10;;
19842;SDS011;10082;51.038;6.992;2022-11-15T15:38:11;2.30;;;1.83;;
19842;SDS011;10082;51.038;6.992;2022-11-15T15:40:40;1.95;;;1.52;;
19842;SDS011;10082;51.038;6.992;2022-11-15T15:43:07;2.95;;;1.80;;
19842;SDS011;10082;51.038;6.992;2022-11-15T15:45:34;2.65;;;1.50;;
19842;SDS011;10082;51.038;6.992;2022-11-15T15:48:03;1.90;;;1.70;;
19842;SDS011;10082;51.038;6.992;2022-11-15T15:50:32;1.95;;;1.67;;
19842;SDS011;10082;51.038;6.992;2022-11-15T15:53:01;1.52;;;1.42;;
19842;SDS011;10082;51.038;6.992;2022-11-15T15:55:31;1.98;;;1.50;;
19842;SDS011;10082;51.038;6.992;2022-11-15T15:58:00;1.63;;;1.52;;
19842;SDS011;10082;51.038;6.992;2022-11-15T16:00:27;3.33;;;1.70;;
19842;SDS011;10082;51.038;6.992;2022-11-15T16:02:54;1.58;;;1.48;;
19842;SDS011;10082;51.038;6.992;2022-11-15T16:05:21;1.73;;;1.52;;
19842;SDS011;10082;51.038;6.992;2022-11-15T16:07:48;1.80;;;1.70;;
19842;SDS011;10082;51.038;6.992;2022-11-15T16:10:17;1.98;;;1.65;;
19842;SDS011;10082;51.038;6.992;2022-11-15T16:12:49;2.10;;;1.67;;
19842;SDS011;10082;51.038;6.992;2022-11-15T16:15:17;2.30;;;1.83;;
19842;SDS011;10082;51.038;6.992;2022-11-15T16:17:47;2.35;;;1.98;;
19842;SDS011;10082;51.038;6.992;2022-11-15T16:23:09;2.03;;;1.30;;
19842;SDS011;10082;51.038;6.992;2022-11-15T16:25:38;2.05;;;1.38;;
19842;SDS011;10082;51.038;6.992;2022-11-15T16:28:16;2.80;;;1.42;;
19842;SDS011;10082;51.038;6.992;2022-11-15T16:30:44;1.95;;;1.60;;
19842;SDS011;10082;51.038;6.992;2022-11-15T16:33:12;1.52;;;1.38;;
19842;SDS011;10082;51.038;6.992;2022-11-15T16:35:39;2.63;;;1.70;;
19842;SDS011;10082;51.038;6.992;2022-11-15T16:38:07;2.53;;;1.75;;
19842;SDS011;10082;51.038;6.992;2022-11-15T16:40:39;2.17;;;1.40;;